Byers, Colorado
Current Conditions -  °F | °C
As of 9:17 PM on Tuesday 25 Nov 2014 (Local Time) from KFTG Reporting Station
Overcast Overcast  
Wind Chill: 23°   Ceiling: 900
Heat Index: 34°   Visibility: 10mi
Dew Point: 32°   Wind: 17mph
Humidity: 93%   Direction: 50°NE
Pressure: 30.04"   Gusts: 22mph
Location:  39.71°N, 104.23°W
Report Text: KFTG 260417Z AUTO 05015G19KT 10SM OVC009 01/00 A3004 RMK AO2
Loading
Personal Weather Stations






























Interactive Weather Map New forecast layout! Learn more

10-Day Weather Forecast

Advertisements
Track Severe Weather on mobile